Terminal Aerodrome Forecast
Issued by NWS Grand Junction, CO

Home | Current Version | Previous Version | Text Only | Print | Product List | Glossary On
Versions: 1 2 3 4 5 6 7 8 9 10 11 12 13 14 15 16 17 18 19 20 21 22 23 24 25 26 27 28 29 30 31 32
000
FTUS45 KGJT 260534
TAFGJT
TAF
KGJT 260534Z 2606/2706 10005KT P6SM VCSH BKN110
      TEMPO 2606/2608 -RA BKN090
     FM260900 18004KT P6SM BKN070
     FM262100 30004KT P6SM BKN200
     FM262300 24005KT P6SM BKN140
     FM270100 30005KT P6SM SCT100
     FM270300 36005KT P6SM SCT130=

USA.gov is the U.S. government's official web portal to all federal, state and local government web resources and services.